Time;durP1;ratioP1;P1;durP2;ratioP2;P2;SDS_P1;SDS_P2;PMS_P1;PMS_P2;Temp;Humidity;BMP_temperature;BMP_pressure;BME280_temperature;BME280_humidity;BME280_pressure;Samples;Min_cycle;Max_cycle;Signal;HPM_P1;HPM_P2
2022/06/18 00:00:18;;;;;;;11.15;7.20;;;;;;;21.50;57.44;101171.78;4925340;28;119744;-79
2022/06/18 00:02:44;;;;;;;8.68;6.40;;;;;;;21.49;56.87;101175.06;4931273;28;120656;-79
2022/06/18 00:05:15;;;;;;;13.82;7.28;;;;;;;21.45;57.25;101175.34;4931017;28;120287;-79
2022/06/18 00:07:46;;;;;;;9.25;7.00;;;;;;;21.49;57.53;101175.06;4931479;28;120223;-78
2022/06/18 00:10:16;;;;;;;11.38;8.10;;;;;;;21.43;57.49;101167.50;4930763;28;119580;-79
2022/06/18 00:15:32;;;;;;;12.02;8.80;;;;;;;21.45;57.65;101178.91;4927490;28;119574;-79
2022/06/18 00:17:58;;;;;;;11.57;8.80;;;;;;;21.39;57.93;101169.03;4932633;28;119854;-79
2022/06/18 00:20:27;;;;;;;13.00;9.02;;;;;;;21.43;57.77;101177.91;4906787;28;120215;-80
2022/06/18 00:22:57;;;;;;;31.80;18.63;;;;;;;21.40;58.25;101179.69;4928444;28;120992;-79
2022/06/18 00:25:28;;;;;;;16.13;10.40;;;;;;;21.34;57.86;101156.63;4924162;28;119692;-79
2022/06/18 00:27:54;;;;;;;15.38;10.65;;;;;;;21.36;57.88;101156.13;4933894;28;119596;-78
2022/06/18 00:30:22;;;;;;;18.50;10.25;;;;;;;21.35;57.88;101157.41;4929745;28;119812;-80
2022/06/18 00:32:48;;;;;;;11.85;8.65;;;;;;;21.32;57.98;101156.41;4929914;28;119733;-78
2022/06/18 00:35:15;;;;;;;13.15;9.13;;;;;;;21.27;57.93;101132.03;4928786;28;119948;-79
2022/06/18 00:37:42;;;;;;;10.95;8.00;;;;;;;21.29;58.01;101132.28;4912979;28;120262;-79
2022/06/18 00:40:27;;;;;;;11.00;8.38;;;;;;;21.28;58.21;101136.34;4913069;28;120517;-79
2022/06/18 00:42:52;;;;;;;11.77;8.75;;;;;;;21.24;58.21;101121.16;4923838;28;120590;-80
2022/06/18 00:45:27;;;;;;;15.45;8.50;;;;;;;21.22;57.90;101104.91;4905062;28;120994;-80
2022/06/18 00:47:58;;;;;;;10.57;8.15;;;;;;;21.19;58.16;101108.72;4943174;28;120048;-80
2022/06/18 00:50:30;;;;;;;11.45;8.32;;;;;;;21.10;57.79;101095.84;4942699;28;119787;-79
2022/06/18 00:53:04;;;;;;;12.23;8.20;;;;;;;21.14;57.42;101096.34;4934607;28;119539;-79
2022/06/18 00:55:40;;;;;;;12.38;9.15;;;;;;;21.12;57.61;101098.88;4921418;28;120143;-78
2022/06/18 00:58:18;;;;;;;10.75;8.48;;;;;;;21.10;57.80;101106.25;4918298;28;119895;-78
2022/06/18 01:00:47;;;;;;;12.45;7.90;;;;;;;21.07;58.09;101096.13;4907024;28;119601;-79
2022/06/18 01:03:22;;;;;;;11.13;8.40;;;;;;;21.08;58.25;101092.06;4927847;28;119805;-79
2022/06/18 01:05:49;;;;;;;12.63;8.50;;;;;;;20.99;58.59;101084.72;4945106;28;120232;-79
2022/06/18 01:08:19;;;;;;;14.57;7.60;;;;;;;21.06;58.90;101095.38;4914931;28;120417;-79
2022/06/18 01:10:51;;;;;;;12.27;8.55;;;;;;;21.02;58.37;101103.22;4928616;28;119737;-78
2022/06/18 01:13:21;;;;;;;16.45;9.73;;;;;;;21.02;57.75;101108.03;4930174;28;119697;-80
2022/06/18 01:15:52;;;;;;;10.57;8.32;;;;;;;21.02;58.08;101102.47;4912149;28;119754;-80
2022/06/18 01:18:18;;;;;;;13.82;9.30;;;;;;;21.01;58.28;101073.06;4930762;28;120137;-80
2022/06/18 01:21:31;;;;;;;11.73;7.97;;;;;;;21.00;58.26;101086.25;4915350;28;121272;-79
2022/06/18 01:24:07;;;;;;;12.20;8.32;;;;;;;20.99;58.77;101075.59;4853105;28;122004;-80
2022/06/18 01:26:33;;;;;;;12.13;7.80;;;;;;;20.95;58.45;101075.88;4925381;28;119583;-79
2022/06/18 01:29:00;;;;;;;11.68;8.20;;;;;;;20.96;58.94;101087.78;4911631;28;120548;-79
2022/06/18 01:31:26;;;;;;;11.52;7.75;;;;;;;20.93;58.53;101086.03;4902688;28;120958;-78
2022/06/18 01:33:52;;;;;;;10.93;8.80;;;;;;;20.90;58.92;101078.69;4918196;28;120051;-79
2022/06/18 01:36:20;;;;;;;11.68;8.85;;;;;;;20.81;59.16;101077.69;4930695;28;119459;-80
2022/06/18 01:38:47;;;;;;;9.70;7.53;;;;;;;20.86;59.00;101078.97;4909021;28;119611;-79
2022/06/18 01:44:18;;;;;;;11.63;8.30;;;;;;;20.79;59.26;101082.25;4923321;28;120378;-79
2022/06/18 01:46:47;;;;;;;8.38;7.18;;;;;;;20.82;59.51;101081.25;4920198;28;119670;-79
2022/06/18 01:49:21;;;;;;;11.52;7.88;;;;;;;20.75;59.37;101068.59;4901670;28;119644;-80
2022/06/18 01:51:51;;;;;;;12.48;7.68;;;;;;;20.76;59.51;101064.53;4934324;28;119724;-78
2022/06/18 01:54:32;;;;;;;12.75;8.38;;;;;;;20.74;59.64;101075.44;4902234;28;120143;-79
2022/06/18 01:57:08;;;;;;;12.63;7.75;;;;;;;20.74;60.00;101083.81;4925740;28;120124;-79
2022/06/18 01:59:43;;;;;;;9.57;7.50;;;;;;;20.69;59.59;101081.78;4920390;28;119739;-80
2022/06/18 02:02:15;;;;;;;14.75;8.23;;;;;;;20.66;59.46;101071.66;4884732;28;119621;-80
2022/06/18 02:04:42;;;;;;;8.48;7.43;;;;;;;20.58;59.66;101051.16;4883720;28;120174;-80
2022/06/18 02:07:09;;;;;;;10.20;7.40;;;;;;;20.56;59.96;101039.75;4887709;28;119707;-80
2022/06/18 02:09:45;;;;;;;10.15;7.28;;;;;;;20.57;59.98;101037.72;4887769;28;119639;-80
2022/06/18 02:12:15;;;;;;;10.25;7.70;;;;;;;20.54;60.27;101043.06;4883569;28;120072;-78
2022/06/18 02:14:46;;;;;;;9.73;7.63;;;;;;;20.49;60.33;101037.50;4884558;28;120432;-79
2022/06/18 02:17:17;;;;;;;12.13;7.97;;;;;;;20.49;60.10;101043.09;4880157;28;120335;-79
2022/06/18 02:20:01;;;;;;;10.88;7.60;;;;;;;20.44;60.27;101032.72;4886886;28;120212;-79
2022/06/18 02:22:34;;;;;;;12.48;8.40;;;;;;;20.43;60.38;101037.53;4857970;28;120576;-80
2022/06/18 02:25:00;;;;;;;10.48;8.48;;;;;;;20.40;60.30;101029.41;4886750;28;119716;-79
2022/06/18 02:27:26;;;;;;;9.07;8.13;;;;;;;20.36;60.67;101028.91;4884390;28;119810;-79
2022/06/18 02:29:54;;;;;;;10.02;8.38;;;;;;;20.30;60.94;101025.38;4886106;28;120356;-79
2022/06/18 02:32:38;;;;;;;11.38;8.15;;;;;;;20.33;61.13;101035.50;4885148;28;119952;-80
2022/06/18 02:35:14;;;;;;;9.25;7.45;;;;;;;20.33;60.83;101041.06;4921977;28;119690;-79
2022/06/18 02:37:42;;;;;;;12.75;7.90;;;;;;;20.31;60.98;101038.03;4921376;28;119799;-79
2022/06/18 02:40:21;;;;;;;8.68;7.63;;;;;;;20.28;60.66;101033.47;4919918;28;121229;-80
2022/06/18 02:42:49;;;;;;;9.25;7.40;;;;;;;20.27;61.00;101029.19;4925203;28;119849;-79
2022/06/18 02:45:16;;;;;;;10.52;7.75;;;;;;;20.18;61.06;101008.69;4919536;28;122461;-79
2022/06/18 02:47:43;;;;;;;9.88;7.90;;;;;;;20.21;61.38;101013.25;4921169;28;119731;-79
2022/06/18 02:50:11;;;;;;;12.48;8.40;;;;;;;20.19;61.17;101015.78;4919450;28;119527;-80
2022/06/18 02:52:42;;;;;;;9.40;8.43;;;;;;;20.18;61.10;101019.84;4921437;28;120308;-79
2022/06/18 02:55:40;;;;;;;10.73;8.80;;;;;;;20.19;61.35;101020.59;4938986;28;119870;-79
2022/06/18 02:58:18;;;;;;;9.95;8.38;;;;;;;20.17;61.34;101021.09;4919850;28;119602;-79
2022/06/18 03:00:56;;;;;;;10.05;8.00;;;;;;;20.17;61.37;101017.56;4938756;28;119768;-79
2022/06/18 03:03:57;;;;;;;10.45;8.23;;;;;;;20.15;61.74;101017.31;4879666;28;120019;-79
2022/06/18 03:06:28;;;;;;;11.27;8.48;;;;;;;20.12;61.63;101005.16;4941028;28;119681;-79
2022/06/18 03:08:57;;;;;;;12.07;8.95;;;;;;;20.09;61.63;101008.19;4922948;28;119588;-78
2022/06/18 03:14:10;;;;;;;10.95;8.20;;;;;;;20.03;61.99;100999.84;4924069;28;120358;-80
2022/06/18 03:16:36;;;;;;;13.25;9.65;;;;;;;20.03;61.76;101002.63;4904632;28;119586;-79
2022/06/18 03:19:03;;;;;;;9.27;8.32;;;;;;;20.01;62.30;101001.63;4923319;28;119532;-79
2022/06/18 03:21:48;;;;;;;11.73;8.82;;;;;;;20.08;61.96;101026.16;4904090;28;122295;-79
2022/06/18 03:24:14;;;;;;;11.73;9.20;;;;;;;20.05;62.13;101021.59;4937222;28;120010;-79
2022/06/18 03:26:40;;;;;;;13.15;8.35;;;;;;;20.05;62.20;101038.31;4922009;28;119639;-80
2022/06/18 03:29:10;;;;;;;10.68;8.70;;;;;;;20.03;62.35;101036.03;4922520;28;119626;-80
2022/06/18 03:31:36;;;;;;;13.18;9.07;;;;;;;20.04;62.59;101029.22;4902719;28;119884;-79
2022/06/18 03:34:22;;;;;;;9.93;8.30;;;;;;;19.97;62.40;101026.19;4891178;28;119730;-80
2022/06/18 03:36:48;;;;;;;9.55;8.25;;;;;;;19.98;62.41;101014.53;4923527;28;119787;-80
2022/06/18 03:39:14;;;;;;;12.93;9.20;;;;;;;20.00;62.75;101012.00;4908915;28;121039;-79
2022/06/18 03:41:40;;;;;;;9.75;8.20;;;;;;;20.05;62.90;101019.59;4903037;28;119718;-79
2022/06/18 03:44:05;;;;;;;11.43;8.68;;;;;;;20.07;63.06;101008.69;4906683;28;119844;-80
2022/06/18 03:46:36;;;;;;;11.18;8.23;;;;;;;20.10;63.26;100999.31;4920785;28;119711;-79
2022/06/18 03:49:04;;;;;;;9.55;7.90;;;;;;;20.13;63.46;101012.25;4906099;28;119735;-80
2022/06/18 03:51:34;;;;;;;13.77;8.80;;;;;;;20.15;63.58;101012.50;4895603;28;120277;-79
2022/06/18 03:54:01;;;;;;;10.60;8.68;;;;;;;20.19;63.34;101020.59;4921012;28;119923;-80
2022/06/18 03:56:31;;;;;;;11.52;9.38;;;;;;;20.20;63.54;101017.28;4921432;28;119818;-79
2022/06/18 03:58:57;;;;;;;16.67;10.02;;;;;;;20.18;63.42;101019.84;4905714;28;119946;-80
2022/06/18 04:01:29;;;;;;;12.85;8.55;;;;;;;20.24;63.40;101017.78;4921595;28;120336;-79
2022/06/18 04:03:56;;;;;;;11.87;9.00;;;;;;;20.18;63.20;101011.47;4905303;28;119603;-80
2022/06/18 04:06:29;;;;;;;14.35;8.55;;;;;;;20.28;63.30;101037.03;4913872;28;120318;-79
2022/06/18 04:08:56;;;;;;;12.02;7.78;;;;;;;20.30;63.42;101031.69;4912939;28;119550;-79
2022/06/18 04:11:24;;;;;;;9.70;7.95;;;;;;;20.31;63.69;101022.06;4917976;28;119487;-79
2022/06/18 04:13:50;;;;;;;12.50;7.53;;;;;;;20.36;63.75;101023.34;4915668;28;120898;-79
2022/06/18 04:16:34;;;;;;;;;;;;;;;20.37;63.17;101030.44;4934726;28;119465;-79
2022/06/18 04:19:12;;;;;;;9.32;7.43;;;;;;;20.40;63.93;101018.28;4947017;28;119524;-80
2022/06/18 04:21:39;;;;;;;10.35;7.82;;;;;;;20.38;64.14;101016.00;4952224;28;120459;-80
2022/06/18 04:24:05;;;;;;;12.00;8.20;;;;;;;20.46;64.35;101027.38;4922995;28;119893;-79
2022/06/18 04:26:32;;;;;;;9.27;7.97;;;;;;;20.49;64.60;101031.94;4919038;28;120197;-79
2022/06/18 04:29:08;;;;;;;12.05;9.45;;;;;;;20.54;64.47;101040.28;4887143;28;120259;-79
2022/06/18 04:31:34;;;;;;;12.70;10.18;;;;;;;20.52;64.11;101020.53;4923344;28;119947;-79
2022/06/18 04:34:00;;;;;;;11.93;9.70;;;;;;;20.62;64.54;101032.16;4918038;28;120122;-79
2022/06/18 04:36:35;;;;;;;14.20;10.25;;;;;;;20.67;64.74;101019.47;4917581;28;119799;-79
2022/06/18 04:39:07;;;;;;;15.98;11.23;;;;;;;20.72;64.89;101022.22;4881060;28;119655;-78
2022/06/18 04:41:45;;;;;;;17.02;10.43;;;;;;;20.77;64.27;101018.66;4941432;28;120506;-79
2022/06/18 04:44:18;;;;;;;16.77;10.90;;;;;;;20.78;65.00;101017.38;4947545;28;120410;-79
2022/06/18 04:46:50;;;;;;;16.53;11.30;;;;;;;20.86;64.90;101020.41;4915873;28;119820;-80
2022/06/18 04:49:16;;;;;;;19.63;12.27;;;;;;;20.90;64.42;101022.94;4928292;28;120590;-79
2022/06/18 04:51:42;;;;;;;17.25;11.93;;;;;;;20.94;64.50;101031.78;4897120;28;119611;-79
2022/06/18 04:54:08;;;;;;;22.77;12.63;;;;;;;20.97;64.36;101028.72;4909962;28;119528;-79
2022/06/18 04:56:34;;;;;;;21.17;13.02;;;;;;;20.99;64.15;101037.31;4923236;28;120696;-80
2022/06/18 04:58:59;;;;;;;21.48;12.52;;;;;;;20.96;64.37;101023.66;4915413;28;121573;-80
2022/06/18 05:01:30;;;;;;;16.52;10.68;;;;;;;21.09;64.22;101027.38;4928316;28;119570;-79
2022/06/18 05:04:08;;;;;;;17.25;11.60;;;;;;;21.13;63.76;101021.53;4913378;28;120111;-79
2022/06/18 05:06:52;;;;;;;22.10;12.93;;;;;;;21.13;63.41;101004.81;4912615;28;120462;-79
2022/06/18 05:09:36;;;;;;;23.40;13.23;;;;;;;21.18;63.87;101011.63;4908105;28;120342;-79
2022/06/18 05:12:15;;;;;;;20.02;12.30;;;;;;;21.20;63.73;101003.47;4932171;28;119646;-79
2022/06/18 05:15:11;;;;;;;23.08;11.90;;;;;;;21.25;63.42;101009.06;4915678;28;119987;-79
2022/06/18 05:17:43;;;;;;;24.67;14.60;;;;;;;21.27;63.59;101019.69;4923753;28;121006;-79
2022/06/18 05:20:15;;;;;;;28.55;14.48;;;;;;;21.34;63.55;101021.94;4924242;28;120141;-80
2022/06/18 05:22:41;;;;;;;20.88;11.95;;;;;;;21.33;63.48;101018.41;4897989;28;120917;-79
2022/06/18 05:25:09;;;;;;;14.80;9.65;;;;;;;21.37;62.87;101027.25;4928026;28;119832;-79
2022/06/18 05:27:37;;;;;;;18.80;12.13;;;;;;;21.41;63.13;101030.50;4899605;28;121976;-79
2022/06/18 05:30:22;;;;;;;15.95;10.63;;;;;;;21.44;62.64;101032.25;4932082;28;119075;-79
2022/06/18 05:32:48;;;;;;;18.58;12.80;;;;;;;21.43;62.85;101021.63;4931716;28;119466;-79
2022/06/18 05:35:41;;;;;;;19.80;12.68;;;;;;;21.48;63.21;101029.19;4909524;28;119573;-79
2022/06/18 05:38:16;;;;;;;20.48;12.15;;;;;;;21.51;62.63;101038.56;4910796;28;120989;-79
2022/06/18 05:41:00;;;;;;;18.00;12.02;;;;;;;21.51;63.00;101035.78;4910996;28;120088;-79
2022/06/18 05:43:26;;;;;;;23.65;13.38;;;;;;;21.52;62.99;101032.47;4898369;28;119781;-80
2022/06/18 05:45:53;;;;;;;18.25;12.23;;;;;;;21.50;62.95;101026.63;4875273;28;120154;-80
2022/06/18 05:48:19;;;;;;;18.45;11.82;;;;;;;21.59;62.75;101039.53;4881614;28;120130;-79
2022/06/18 05:50:45;;;;;;;27.23;16.13;;;;;;;21.55;62.87;101033.47;4909073;28;120345;-79
2022/06/18 05:53:10;;;;;;;26.85;15.90;;;;;;;21.57;62.72;101042.09;4911054;28;120716;-78
2022/06/18 05:56:16;;;;;;;21.05;12.63;;;;;;;21.56;62.34;101035.00;4902560;28;119943;-79
2022/06/18 05:59:03;;;;;;;24.17;13.88;;;;;;;21.61;62.42;101048.16;4900719;28;119734;-80
2022/06/18 06:01:32;;;;;;;23.50;14.30;;;;;;;21.64;62.64;101038.72;4896785;28;120163;-79
2022/06/18 06:04:19;;;;;;;25.67;14.20;;;;;;;21.66;62.47;101044.56;4900301;28;120233;-79
2022/06/18 06:06:46;;;;;;;22.83;13.45;;;;;;;21.63;62.88;101028.84;4942574;28;119776;-79
2022/06/18 06:09:13;;;;;;;23.38;13.27;;;;;;;21.72;63.00;101046.00;4920945;28;119769;-79
2022/06/18 06:11:38;;;;;;;24.58;13.85;;;;;;;21.73;62.90;101046.78;4915262;28;120336;-79
2022/06/18 06:14:06;;;;;;;27.35;14.52;;;;;;;21.74;62.65;101051.06;4934498;28;119952;-79
2022/06/18 06:16:32;;;;;;;24.90;13.23;;;;;;;21.79;62.68;101064.25;4927115;28;119653;-80
2022/06/18 06:19:01;;;;;;;21.92;13.70;;;;;;;21.74;62.49;101051.06;4928012;28;120924;-79
2022/06/18 06:21:26;;;;;;;23.38;13.82;;;;;;;21.86;62.50;101080.44;4927639;28;119894;-80
2022/06/18 06:23:52;;;;;;;23.55;13.77;;;;;;;21.88;62.39;101071.53;4927207;28;121749;-79
2022/06/18 06:26:22;;;;;;;23.67;12.82;;;;;;;21.90;62.05;101078.13;4944601;28;121267;-79
2022/06/18 06:28:47;;;;;;;22.48;13.68;;;;;;;21.92;62.23;101074.81;4918822;28;122575;-79
2022/06/18 06:31:13;;;;;;;25.45;13.13;;;;;;;21.90;61.95;101069.75;4934053;28;121140;-79
2022/06/18 06:33:40;;;;;;;21.35;13.38;;;;;;;21.95;62.31;101082.13;4929982;28;120100;-79
2022/06/18 06:36:07;;;;;;;17.75;12.65;;;;;;;21.96;61.92;101090.00;4930203;28;119653;-79
2022/06/18 06:38:33;;;;;;;21.60;13.30;;;;;;;21.89;61.87;101076.59;4933906;28;120150;-80
2022/06/18 06:40:59;;;;;;;21.35;11.88;;;;;;;21.92;61.81;101100.69;4936091;28;120541;-80
2022/06/18 06:43:25;;;;;;;19.75;11.88;;;;;;;21.91;61.85;101096.38;4935607;28;120019;-80
2022/06/18 06:45:51;;;;;;;23.88;13.82;;;;;;;21.91;62.10;101088.00;4933635;28;119861;-79
2022/06/18 06:48:18;;;;;;;21.90;12.07;;;;;;;21.91;62.26;101082.44;4925735;28;120013;-79
2022/06/18 06:50:46;;;;;;;20.23;12.43;;;;;;;21.92;61.97;101092.31;4915487;28;119742;-79
2022/06/18 06:53:12;;;;;;;23.58;12.48;;;;;;;21.88;62.29;101094.63;4917453;28;119744;-80
2022/06/18 06:58:23;;;;;;;20.75;11.80;;;;;;;21.92;62.60;101094.34;4936792;28;119676;-80
2022/06/18 07:00:53;;;;;;;19.48;12.10;;;;;;;21.95;62.81;101079.34;4918396;28;119824;-81
2022/06/18 07:03:34;;;;;;;18.35;8.98;;;;;;;21.98;62.70;101087.44;4917691;28;119712;-80
2022/06/18 07:06:01;;;;;;;23.33;10.48;;;;;;;21.99;62.42;101071.44;4935007;28;120251;-79
2022/06/18 07:08:27;;;;;;;15.35;8.55;;;;;;;22.02;62.14;101092.75;4934386;28;119536;-80
2022/06/18 07:10:54;;;;;;;20.15;10.05;;;;;;;21.97;62.59;101090.75;4936789;28;119854;-79
2022/06/18 07:13:20;;;;;;;18.88;10.18;;;;;;;22.05;62.58;101098.09;4934285;28;120095;-79
2022/06/18 07:15:46;;;;;;;21.13;9.73;;;;;;;22.02;62.49;101079.56;4936063;28;119781;-80
2022/06/18 07:18:16;;;;;;;12.70;7.25;;;;;;;22.14;62.62;101088.63;4920967;28;119818;-80
2022/06/18 07:20:42;;;;;;;11.25;6.18;;;;;;;22.16;62.43;101096.47;4947034;28;120267;-79
2022/06/18 07:23:09;;;;;;;11.85;6.15;;;;;;;22.14;62.07;101083.03;4931475;28;120435;-80
2022/06/18 07:25:34;;;;;;;12.73;5.95;;;;;;;22.14;62.23;101082.28;4917287;28;119756;-79
2022/06/18 07:28:00;;;;;;;10.57;6.32;;;;;;;22.21;62.02;101090.81;4931339;28;119871;-80
2022/06/18 07:30:46;;;;;;;12.93;6.38;;;;;;;22.25;62.20;101096.16;4914485;28;120375;-81
2022/06/18 07:33:16;;;;;;;15.32;5.63;;;;;;;22.29;61.94;101091.78;4917904;28;121071;-79
2022/06/18 07:35:42;;;;;;;13.13;5.60;;;;;;;22.28;62.00;101097.91;4922650;28;119783;-79
2022/06/18 07:38:10;;;;;;;11.70;6.60;;;;;;;22.38;62.13;101104.66;4923814;28;119940;-80
2022/06/18 07:40:44;;;;;;;12.80;5.47;;;;;;;22.37;62.13;101091.97;4935256;28;120410;-78
2022/06/18 07:43:17;;;;;;;8.80;5.15;;;;;;;22.46;61.56;101102.78;4924333;28;120183;-80
2022/06/18 07:46:06;;;;;;;9.38;5.10;;;;;;;22.55;61.64;101112.88;4939005;28;120353;-80
2022/06/18 07:48:35;;;;;;;12.88;4.97;;;;;;;22.59;61.88;101122.47;4936753;28;120176;-80
2022/06/18 07:51:03;;;;;;;9.70;4.55;;;;;;;22.58;61.16;101104.19;4954134;28;121052;-80
2022/06/18 07:53:29;;;;;;;13.20;4.07;;;;;;;22.66;60.72;101107.91;4926024;28;120786;-79
2022/06/18 07:55:56;;;;;;;8.65;4.03;;;;;;;22.65;60.67;101106.41;4936557;28;120293;-79
2022/06/18 07:58:22;;;;;;;7.97;3.15;;;;;;;22.74;60.28;101116.50;4932274;28;120297;-80
2022/06/18 08:00:48;;;;;;;9.57;3.25;;;;;;;22.87;60.43;101133.41;4934478;28;120081;-80
2022/06/18 08:03:15;;;;;;;8.02;2.85;;;;;;;22.94;59.53;101137.63;4940613;28;120740;-79
2022/06/18 08:05:43;;;;;;;8.82;3.03;;;;;;;22.98;59.45;101129.72;4952785;28;120395;-80
2022/06/18 08:08:12;;;;;;;10.77;2.88;;;;;;;23.05;59.30;101131.16;4953905;28;121005;-80
2022/06/18 08:10:39;;;;;;;6.15;2.40;;;;;;;23.14;59.53;101131.53;4939839;28;120838;-81
2022/06/18 08:13:05;;;;;;;6.70;2.35;;;;;;;23.19;58.06;101130.00;4931108;28;121222;-79
2022/06/18 08:15:31;;;;;;;8.23;2.58;;;;;;;23.26;58.26;101127.34;4932083;28;121070;-79
2022/06/18 08:17:58;;;;;;;7.43;2.30;;;;;;;23.32;57.24;101126.50;4936652;28;120616;-79
2022/06/18 08:20:26;;;;;;;5.20;2.40;;;;;;;23.39;57.29;101118.25;4940084;28;121291;-80
2022/06/18 08:22:55;;;;;;;6.50;2.40;;;;;;;23.44;57.31;101120.22;4910692;28;121420;-80
2022/06/18 08:25:24;;;;;;;3.50;1.80;;;;;;;23.56;56.90;101129.25;4922231;28;122344;-80
2022/06/18 08:27:51;;;;;;;6.32;2.13;;;;;;;23.67;56.44;101120.69;4922568;28;121649;-79
2022/06/18 08:30:18;;;;;;;4.82;1.98;;;;;;;23.74;55.90;101122.88;4911061;28;121845;-79
2022/06/18 08:32:45;;;;;;;6.07;2.15;;;;;;;23.81;54.85;101119.44;4907511;28;121712;-80
2022/06/18 08:35:11;;;;;;;5.65;2.35;;;;;;;23.86;56.11;101131.84;4922450;28;122017;-80
2022/06/18 08:37:38;;;;;;;5.53;2.10;;;;;;;23.92;54.30;101120.59;4931882;28;121182;-80
2022/06/18 08:40:34;;;;;;;8.00;2.20;;;;;;;23.94;54.75;101113.16;4927801;28;121965;-80
2022/06/18 08:43:36;;;;;;;4.47;2.00;;;;;;;24.04;54.71;101141.53;4912821;28;122044;-79
2022/06/18 08:46:11;;;;;;;5.93;2.28;;;;;;;24.04;54.75;101127.50;4889372;28;122596;-80
2022/06/18 08:49:28;;;;;;;5.47;2.10;;;;;;;24.07;54.58;101146.06;4935211;28;121595;-79
2022/06/18 08:52:17;;;;;;;6.18;1.73;;;;;;;24.11;55.07;101149.28;4902015;28;121414;-80
2022/06/18 08:54:58;;;;;;;7.85;6.03;;;;;;;24.15;54.21;101149.75;4912902;28;121638;-80
2022/06/18 08:57:47;;;;;;;2.88;1.70;;;;;;;24.18;53.79;101143.09;4903391;28;121563;-80
2022/06/18 09:00:19;;;;;;;3.28;1.27;;;;;;;24.24;53.62;101151.41;4928744;28;121417;-79
2022/06/18 09:02:56;;;;;;;3.30;1.80;;;;;;;24.30;54.79;101158.44;4924675;28;121472;-80
2022/06/18 09:05:40;;;;;;;2.80;1.10;;;;;;;24.35;52.88;101154.78;4919558;28;121743;-80
2022/06/18 09:08:30;;;;;;;4.20;1.10;;;;;;;24.32;53.01;101153.06;4923202;28;122521;-81
2022/06/18 09:11:07;;;;;;;3.03;1.30;;;;;;;24.42;52.52;101162.56;4941566;28;122023;-80
2022/06/18 09:13:40;;;;;;;3.50;1.17;;;;;;;24.43;52.48;101178.09;4926751;28;122246;-79
2022/06/18 09:16:10;;;;;;;2.42;1.30;;;;;;;24.45;52.67;101163.56;4924942;28;122672;-79
2022/06/18 09:18:41;;;;;;;6.22;1.83;;;;;;;24.44;52.77;101168.41;4925362;28;121684;-79
2022/06/18 09:21:22;;;;;;;5.50;1.60;;;;;;;24.43;51.90;101160.53;4925527;28;122126;-80
2022/06/18 09:24:06;;;;;;;3.58;2.10;;;;;;;24.40;52.45;101162.34;4927358;28;123088;-79
2022/06/18 09:26:39;;;;;;;;;;;;;;;24.41;53.11;101152.66;4939648;28;121739;-78
2022/06/18 09:29:22;;;;;;;18.60;12.88;;;;;;;24.48;52.60;101142.84;4912045;28;121730;-79
2022/06/18 09:31:59;;;;;;;25.83;16.23;;;;;;;24.44;52.88;101148.78;4912865;28;122332;-79
2022/06/18 09:34:41;;;;;;;4.20;1.70;;;;;;;24.53;52.67;101149.63;4910590;28;121821;-80
2022/06/18 09:37:20;;;;;;;11.35;5.05;;;;;;;24.52;52.64;101150.94;4920206;28;124533;-79
2022/06/18 09:39:50;;;;;;;6.20;3.13;;;;;;;24.46;51.92;101146.19;4914716;28;121543;-80
2022/06/18 09:42:19;;;;;;;5.68;3.60;;;;;;;24.51;51.69;101146.63;4929696;28;121596;-79
2022/06/18 09:45:00;;;;;;;7.47;4.40;;;;;;;24.44;51.49;101143.16;4904549;28;122308;-80
2022/06/18 09:47:36;;;;;;;6.75;3.70;;;;;;;24.47;51.50;101139.28;4931124;28;122143;-80
2022/06/18 09:50:02;;;;;;;3.85;1.90;;;;;;;24.51;52.16;101150.19;4927054;28;121702;-80
2022/06/18 09:52:55;;;;;;;3.80;1.92;;;;;;;24.51;51.13;101135.41;4921117;28;122017;-80
2022/06/18 09:55:32;;;;;;;5.22;1.55;;;;;;;24.54;51.08;101137.13;4934993;28;121277;-80
2022/06/18 09:58:01;;;;;;;3.78;1.85;;;;;;;24.54;51.32;101142.75;4926665;28;122326;-80
2022/06/18 10:00:31;;;;;;;3.08;1.80;;;;;;;24.48;51.46;101135.19;4929507;28;121964;-80
2022/06/18 10:03:04;;;;;;;3.60;1.60;;;;;;;24.52;50.09;101148.88;4931554;28;121699;-78
2022/06/18 10:08:38;;;;;;;9.57;4.35;;;;;;;24.47;50.87;101156.09;4917150;28;121670;-78
2022/06/18 10:11:09;;;;;;;4.38;2.72;;;;;;;24.45;51.08;101158.69;4929902;28;121558;-80
2022/06/18 10:13:43;;;;;;;4.28;1.80;;;;;;;24.45;50.57;101155.13;4933905;28;121462;-80
2022/06/18 10:16:53;;;;;;;3.58;2.30;;;;;;;24.45;50.51;101164.31;4946342;28;123502;-79
2022/06/18 10:19:38;;;;;;;4.90;2.03;;;;;;;24.43;50.64;101172.50;4861989;28;123490;-79
2022/06/18 10:22:22;;;;;;;5.03;2.55;;;;;;;24.41;50.74;101175.09;4920839;28;121569;-80
2022/06/18 10:25:06;;;;;;;3.05;1.55;;;;;;;24.40;50.06;101173.56;4923080;28;121812;-80
2022/06/18 10:27:44;;;;;;;;;;;;;;;24.39;50.50;101183.28;4926967;28;122382;-80
2022/06/18 10:30:25;;;;;;;5.88;1.60;;;;;;;24.40;50.30;101179.19;4918541;28;122345;-80
2022/06/18 10:33:18;;;;;;;5.43;1.98;;;;;;;24.40;50.02;101182.00;4896871;28;121980;-80
2022/06/18 10:36:15;;;;;;;4.88;2.10;;;;;;;24.41;50.77;101171.53;4914875;28;122518;-79
2022/06/18 10:38:42;;;;;;;5.13;1.70;;;;;;;24.42;50.58;101179.41;4880766;28;122377;-80
2022/06/18 10:41:16;;;;;;;6.05;1.80;;;;;;;24.44;50.31;101184.47;4911110;28;122152;-80
2022/06/18 10:44:06;;;;;;;6.57;1.80;;;;;;;24.41;49.84;101177.91;4911217;28;122382;-80
2022/06/18 10:46:32;;;;;;;4.38;1.88;;;;;;;24.34;49.81;101172.91;4913379;28;123139;-79
2022/06/18 10:49:05;;;;;;;4.88;1.95;;;;;;;24.33;49.30;101168.59;4925084;28;122732;-79
2022/06/18 10:51:46;;;;;;;6.80;1.73;;;;;;;24.30;49.68;101175.25;4922888;28;121702;-80
2022/06/18 10:54:12;;;;;;;4.35;1.88;;;;;;;24.27;49.92;101170.69;4899012;28;124253;-80
2022/06/18 10:56:49;;;;;;;5.38;1.90;;;;;;;24.30;49.45;101172.44;4930892;28;122387;-80
2022/06/18 10:59:39;;;;;;;5.88;1.77;;;;;;;24.26;49.02;101176.84;4937481;28;121573;-79
2022/06/18 11:02:38;;;;;;;4.65;1.77;;;;;;;24.23;48.35;101189.13;4927870;28;122021;-81
2022/06/18 11:05:14;;;;;;;6.53;1.73;;;;;;;24.17;48.25;101197.63;4917264;28;121560;-80
2022/06/18 11:07:45;;;;;;;5.38;1.60;;;;;;;24.14;47.79;101184.69;4933492;28;121435;-80
2022/06/18 11:10:58;;;;;;;6.60;1.90;;;;;;;24.16;47.19;101191.28;4923409;28;121382;-79
2022/06/18 11:13:35;;;;;;;9.15;1.80;;;;;;;24.15;47.02;101203.00;4927121;28;121449;-79
2022/06/18 11:16:19;;;;;;;5.90;1.65;;;;;;;24.12;47.59;101199.19;4911507;28;122852;-79
2022/06/18 11:18:46;;;;;;;;;;;;;;;24.12;48.20;101192.84;4926510;28;121535;-80
2022/06/18 11:21:23;;;;;;;8.32;1.80;;;;;;;24.13;46.84;101191.56;4924678;28;121702;-80
2022/06/18 11:23:57;;;;;;;8.50;1.85;;;;;;;24.08;47.09;101173.53;4915733;28;121226;-80
2022/06/18 11:26:25;;;;;;;5.53;1.75;;;;;;;24.09;47.20;101180.66;4927952;28;121746;-79
2022/06/18 11:28:54;;;;;;;5.78;1.83;;;;;;;24.11;47.20;101185.72;4927077;28;121625;-80
2022/06/18 11:31:25;;;;;;;8.95;2.08;;;;;;;24.11;48.02;101180.88;4925857;28;121370;-80
2022/06/18 11:34:05;;;;;;;8.73;2.08;;;;;;;24.05;47.25;101183.00;4923520;28;122095;-79
2022/06/18 11:36:46;;;;;;;6.60;1.98;;;;;;;24.00;47.18;101171.91;4940601;28;121225;-80
2022/06/18 11:39:31;;;;;;;9.27;2.25;;;;;;;24.08;46.26;101181.94;4929059;28;122111;-79
2022/06/18 11:42:23;;;;;;;5.60;1.50;;;;;;;24.00;46.41;101180.31;4923507;28;121541;-79
2022/06/18 11:45:07;;;;;;;9.32;2.22;;;;;;;24.04;45.38;101200.38;4927192;28;121895;-79
2022/06/18 11:47:41;;;;;;;10.65;2.10;;;;;;;24.01;46.54;101204.25;4933402;28;121203;-79
2022/06/18 11:50:28;;;;;;;9.65;2.22;;;;;;;23.98;47.46;101189.25;4927827;28;121353;-81
2022/06/18 11:53:02;;;;;;;12.15;2.33;;;;;;;23.97;46.59;101189.78;4928938;28;121660;-80